Time;durP1;ratioP1;P1;durP2;ratioP2;P2;SDS_P1;SDS_P2;PMS_P1;PMS_P2;Temp;Humidity;BMP_temperature;BMP_pressure;BME280_temperature;BME280_humidity;BME280_pressure;Samples;Min_cycle;Max_cycle;Signal;HPM_P1;HPM_P2
2022/09/06 00:01:35;;;;;;;11.90;9.70;;;19.80;76.50;;;;;;5053218;28;20524;-59
2022/09/06 00:04:02;;;;;;;10.30;8.90;;;19.70;76.80;;;;;;5053304;28;20472;-59
2022/09/06 00:06:31;;;;;;;10.83;9.83;;;19.70;77.00;;;;;;5053793;28;20468;-59
2022/09/06 00:08:58;;;;;;;10.83;9.83;;;19.70;77.20;;;;;;5053394;28;20440;-60
2022/09/06 00:11:25;;;;;;;10.90;9.80;;;19.70;77.30;;;;;;5054073;28;20449;-59
2022/09/06 00:13:52;;;;;;;9.50;8.70;;;19.70;77.60;;;;;;5052990;28;20436;-59
2022/09/06 00:16:22;;;;;;;10.00;9.00;;;19.70;77.90;;;;;;5052807;28;20463;-60
2022/09/06 00:18:52;;;;;;;9.57;8.77;;;19.60;78.10;;;;;;5052776;28;20444;-60
2022/09/06 00:21:21;;;;;;;10.40;9.57;;;19.60;78.50;;;;;;5053437;28;20454;-60
2022/09/06 00:23:50;;;;;;;9.73;8.83;;;19.60;78.50;;;;;;5052623;28;20549;-60
2022/09/06 00:26:18;;;;;;;10.20;9.30;;;19.60;78.70;;;;;;5055411;28;20460;-59
2022/09/06 00:28:46;;;;;;;10.40;9.60;;;19.60;78.60;;;;;;5056947;28;20446;-59
2022/09/06 00:31:15;;;;;;;10.13;9.03;;;19.60;78.70;;;;;;5056928;28;20539;-60
2022/09/06 00:33:42;;;;;;;9.73;8.70;;;19.60;78.60;;;;;;5057223;28;20919;-60
2022/09/06 00:36:10;;;;;;;10.13;9.33;;;19.60;79.40;;;;;;5057129;28;20856;-60
2022/09/06 00:38:38;;;;;;;9.87;8.87;;;19.60;79.40;;;;;;5056912;28;20440;-60
2022/09/06 00:41:09;;;;;;;9.97;9.07;;;19.70;78.80;;;;;;5057101;28;20448;-59
2022/09/06 00:43:37;;;;;;;10.13;9.13;;;19.70;78.60;;;;;;5056897;28;20515;-59
2022/09/06 00:46:05;;;;;;;11.00;9.53;;;19.70;78.60;;;;;;5056825;28;20926;-59
2022/09/06 00:48:33;;;;;;;11.17;9.40;;;19.70;78.40;;;;;;5057142;28;20531;-59
2022/09/06 00:51:04;;;;;;;10.00;8.70;;;19.70;78.30;;;;;;5057783;28;20459;-60
2022/09/06 00:53:32;;;;;;;10.80;9.40;;;19.70;78.20;;;;;;5066390;28;20496;-59
2022/09/06 00:56:00;;;;;;;9.77;8.67;;;19.70;78.20;;;;;;5061181;28;20491;-59
2022/09/06 00:58:29;;;;;;;8.97;8.27;;;19.70;78.00;;;;;;5056975;28;20541;-60
2022/09/06 01:00:56;;;;;;;9.20;8.30;;;19.70;78.00;;;;;;5057128;28;20443;-59
2022/09/06 01:03:25;;;;;;;9.93;8.80;;;19.80;78.00;;;;;;5057109;28;20454;-60
2022/09/06 01:06:04;;;;;;;9.83;8.90;;;19.70;77.90;;;;;;5057108;28;20892;-60
2022/09/06 01:08:40;;;;;;;11.17;9.13;;;19.70;78.40;;;;;;5057195;28;20468;-59
2022/09/06 01:11:25;;;;;;;9.30;8.30;;;19.70;79.00;;;;;;5056818;28;20431;-60
2022/09/06 01:14:02;;;;;;;9.63;8.73;;;19.70;79.90;;;;;;5057255;28;20503;-59
2022/09/06 01:16:36;;;;;;;9.90;9.00;;;19.60;81.10;;;;;;5057318;28;20487;-60
2022/09/06 01:19:33;;;;;;;9.80;9.10;;;19.60;82.50;;;;;;5056185;28;20428;-59
2022/09/06 01:22:14;;;;;;;10.53;9.60;;;19.50;83.40;;;;;;5056028;28;20428;-59
2022/09/06 01:25:10;;;;;;;9.40;8.50;;;19.40;84.30;;;;;;5056075;28;20994;-60
2022/09/06 01:28:05;;;;;;;9.40;8.60;;;19.30;84.90;;;;;;5056336;28;20623;-59
2022/09/06 01:30:37;;;;;;;9.83;9.00;;;19.30;85.20;;;;;;5056217;28;20431;-58
2022/09/06 01:33:12;;;;;;;8.80;8.00;;;19.20;85.50;;;;;;5055570;28;20515;-58
2022/09/06 01:35:44;;;;;;;10.50;9.50;;;19.20;85.70;;;;;;5055332;28;20493;-58
2022/09/06 01:38:11;;;;;;;9.17;8.47;;;19.20;85.70;;;;;;5054859;28;20444;-59
2022/09/06 01:40:38;;;;;;;9.53;8.63;;;19.20;85.50;;;;;;5055847;28;20535;-59
2022/09/06 01:43:11;;;;;;;9.67;8.90;;;19.10;85.30;;;;;;5055795;28;20522;-59
2022/09/06 01:45:49;;;;;;;10.10;9.13;;;19.20;85.40;;;;;;5055387;28;20466;-59
2022/09/06 01:48:24;;;;;;;10.07;9.17;;;19.10;85.00;;;;;;5056213;28;20436;-59
2022/09/06 01:51:02;;;;;;;9.50;8.50;;;19.10;84.70;;;;;;5055828;28;20434;-59
2022/09/06 01:53:44;;;;;;;10.67;8.30;;;19.10;84.50;;;;;;5055808;28;20527;-59
2022/09/06 01:56:22;;;;;;;8.93;8.13;;;19.10;84.20;;;;;;5055045;28;20949;-59
2022/09/06 01:59:05;;;;;;;9.60;8.73;;;19.10;83.60;;;;;;5055723;28;20754;-59
2022/09/06 02:01:41;;;;;;;9.20;8.23;;;19.20;83.40;;;;;;5055374;28;20444;-60
2022/09/06 02:04:16;;;;;;;8.53;7.83;;;19.10;82.80;;;;;;5055424;28;20428;-59
2022/09/06 02:06:47;;;;;;;8.13;7.43;;;19.10;82.50;;;;;;5055505;28;20550;-60
2022/09/06 02:09:17;;;;;;;8.67;7.87;;;19.10;82.20;;;;;;5055297;28;20524;-59
2022/09/06 02:11:49;;;;;;;9.63;8.47;;;19.10;81.60;;;;;;5056255;28;20443;-60
2022/09/06 02:14:24;;;;;;;8.60;7.80;;;19.20;81.30;;;;;;5054869;28;20436;-59
2022/09/06 02:16:54;;;;;;;8.77;7.90;;;19.20;81.00;;;;;;5055298;28;20472;-58
2022/09/06 02:19:25;;;;;;;8.57;7.77;;;19.20;80.80;;;;;;5055099;28;20439;-59
2022/09/06 02:21:54;;;;;;;8.97;8.20;;;19.20;80.60;;;;;;5054650;28;20430;-60
2022/09/06 02:24:27;;;;;;;8.83;7.93;;;19.20;81.20;;;;;;5054495;28;20454;-59
2022/09/06 02:26:55;;;;;;;8.57;7.87;;;19.20;80.30;;;;;;5055033;28;20808;-59
2022/09/06 02:29:24;;;;;;;9.80;7.83;;;19.20;80.10;;;;;;5055493;28;20448;-59
2022/09/06 02:31:56;;;;;;;8.87;8.17;;;19.20;79.80;;;;;;5056302;28;20444;-59
2022/09/06 02:34:23;;;;;;;8.03;7.27;;;19.20;79.70;;;;;;5055412;28;20434;-60
2022/09/06 02:36:51;;;;;;;7.80;7.10;;;19.20;79.50;;;;;;5055069;28;20901;-59
2022/09/06 02:39:18;;;;;;;8.77;7.07;;;19.20;79.30;;;;;;5054889;28;20538;-59
2022/09/06 02:41:47;;;;;;;7.20;6.50;;;19.20;79.20;;;;;;5055587;28;20490;-59
2022/09/06 02:44:15;;;;;;;10.03;7.57;;;19.10;78.90;;;;;;5055057;28;20452;-61
2022/09/06 02:46:43;;;;;;;8.87;8.07;;;19.10;78.80;;;;;;5055087;28;20530;-60
2022/09/06 02:49:11;;;;;;;8.30;7.60;;;19.10;78.80;;;;;;5053476;28;20544;-59
2022/09/06 02:51:38;;;;;;;10.40;8.10;;;19.10;78.90;;;;;;5054828;28;20440;-59
2022/09/06 02:54:06;;;;;;;8.20;7.50;;;19.10;79.60;;;;;;5055035;28;20847;-60
2022/09/06 02:56:35;;;;;;;7.93;7.13;;;19.00;80.20;;;;;;5053890;28;20841;-59
2022/09/06 02:59:04;;;;;;;10.60;7.67;;;19.00;82.10;;;;;;5054357;28;20539;-60
2022/09/06 03:01:31;;;;;;;8.40;7.50;;;18.90;82.60;;;;;;5054333;28;20539;-60
2022/09/06 03:04:00;;;;;;;8.23;7.43;;;18.80;83.60;;;;;;5053978;28;20444;-60
2022/09/06 03:06:27;;;;;;;8.80;8.10;;;18.80;84.20;;;;;;5053810;28;20547;-59
2022/09/06 03:08:54;;;;;;;8.97;8.20;;;18.70;84.70;;;;;;5053915;28;20527;-59
2022/09/06 03:11:21;;;;;;;8.77;8.00;;;18.70;84.40;;;;;;5055997;28;20539;-60
2022/09/06 03:13:49;;;;;;;8.47;7.67;;;18.60;84.20;;;;;;5058883;28;21011;-60
2022/09/06 03:16:17;;;;;;;9.20;7.67;;;18.60;84.30;;;;;;5057837;28;20502;-59
2022/09/06 03:18:44;;;;;;;8.60;7.90;;;18.60;84.10;;;;;;5054203;28;20448;-59
2022/09/06 03:21:13;;;;;;;10.17;8.10;;;18.50;84.00;;;;;;5053938;28;20531;-59
2022/09/06 03:23:40;;;;;;;8.90;8.00;;;18.50;83.90;;;;;;5053826;28;20512;-59
2022/09/06 03:26:08;;;;;;;8.67;7.90;;;18.50;83.80;;;;;;5053618;28;20551;-59
2022/09/06 03:28:35;;;;;;;9.53;8.20;;;18.50;83.80;;;;;;5053772;28;20471;-59
2022/09/06 03:31:02;;;;;;;8.80;8.10;;;18.40;83.60;;;;;;5053756;28;20540;-59
2022/09/06 03:33:29;;;;;;;8.30;7.60;;;18.50;83.60;;;;;;5053402;28;20538;-59
2022/09/06 03:35:59;;;;;;;8.10;7.40;;;18.40;83.20;;;;;;5053504;28;20493;-59
2022/09/06 03:38:29;;;;;;;9.50;8.57;;;18.40;83.10;;;;;;5053322;28;20538;-59
2022/09/06 03:40:57;;;;;;;8.57;7.77;;;18.40;83.00;;;;;;5053210;28;20523;-59
2022/09/06 03:43:25;;;;;;;8.53;7.80;;;18.40;82.80;;;;;;5053491;28;20903;-59
2022/09/06 03:45:55;;;;;;;7.60;7.00;;;18.40;82.40;;;;;;5053603;28;20555;-59
2022/09/06 03:48:25;;;;;;;8.43;7.60;;;18.40;82.10;;;;;;5053638;28;20474;-59
2022/09/06 03:50:54;;;;;;;7.77;7.07;;;18.40;81.70;;;;;;5055318;28;20871;-59
2022/09/06 03:53:23;;;;;;;7.93;7.23;;;18.40;81.50;;;;;;5055101;28;20527;-60
2022/09/06 03:55:53;;;;;;;7.90;7.10;;;18.40;81.40;;;;;;5057004;28;20492;-58
2022/09/06 03:58:22;;;;;;;8.20;7.50;;;18.30;81.40;;;;;;5055798;28;20428;-59
2022/09/06 04:00:50;;;;;;;8.47;7.67;;;18.30;81.50;;;;;;5055303;28;20546;-59
2022/09/06 04:03:18;;;;;;;8.80;7.43;;;18.20;81.40;;;;;;5057854;28;20535;-59
2022/09/06 04:05:46;;;;;;;9.57;7.73;;;18.20;81.50;;;;;;5075387;28;20455;-59
2022/09/06 04:10:12;;;;;;;7.27;6.67;;;18.20;81.10;;;;;;5116213;27;20540;-60
2022/09/06 04:12:39;;;;;;;11.10;7.80;;;18.20;81.50;;;;;;5115232;28;20540;-59
2022/09/06 04:15:08;;;;;;;7.63;6.93;;;18.10;81.30;;;;;;5114165;28;20545;-60
2022/09/06 04:17:35;;;;;;;8.00;7.40;;;18.10;81.30;;;;;;5108792;28;20526;-60
2022/09/06 04:20:03;;;;;;;7.93;7.33;;;18.10;81.30;;;;;;5102865;28;20538;-60
2022/09/06 04:22:30;;;;;;;7.97;7.30;;;18.10;81.30;;;;;;5092968;28;20442;-59
2022/09/06 04:24:59;;;;;;;7.57;6.77;;;18.10;81.30;;;;;;5110978;28;20472;-59
2022/09/06 04:27:28;;;;;;;9.13;8.30;;;18.10;81.20;;;;;;5112123;28;20448;-60
2022/09/06 04:29:55;;;;;;;7.60;6.90;;;18.00;81.10;;;;;;5113172;28;20556;-59
2022/09/06 04:32:22;;;;;;;8.97;8.07;;;18.00;81.10;;;;;;5112323;28;20529;-60
2022/09/06 04:34:50;;;;;;;8.83;7.43;;;18.00;81.10;;;;;;5111540;28;20537;-59
2022/09/06 04:37:18;;;;;;;7.57;6.97;;;18.00;81.00;;;;;;5090481;28;20564;-58
2022/09/06 04:39:46;;;;;;;8.23;7.27;;;17.90;80.90;;;;;;5090054;28;20450;-59
2022/09/06 04:42:13;;;;;;;8.30;7.50;;;17.90;80.80;;;;;;5090413;28;20446;-59
2022/09/06 04:44:42;;;;;;;7.90;7.20;;;17.90;80.70;;;;;;5090339;28;20558;-60
2022/09/06 04:47:14;;;;;;;9.43;7.90;;;17.90;80.70;;;;;;5090097;28;20537;-60
2022/09/06 04:49:42;;;;;;;7.37;6.67;;;17.90;80.50;;;;;;5089628;28;20470;-59
2022/09/06 04:52:10;;;;;;;7.83;7.07;;;17.90;80.40;;;;;;5098312;28;20536;-60
2022/09/06 04:54:37;;;;;;;7.80;7.10;;;17.90;80.30;;;;;;5108475;28;20553;-60
2022/09/06 04:57:04;;;;;;;9.53;8.43;;;17.90;80.10;;;;;;5102482;28;20921;-60
2022/09/06 04:59:32;;;;;;;7.07;6.47;;;17.90;80.00;;;;;;5104639;28;20470;-60
2022/09/06 05:02:01;;;;;;;7.40;6.77;;;17.90;79.80;;;;;;5095813;28;20496;-59
2022/09/06 05:04:29;;;;;;;7.77;7.07;;;17.90;79.70;;;;;;5090719;28;20473;-59
2022/09/06 05:07:03;;;;;;;8.50;7.07;;;17.90;79.50;;;;;;5107994;28;20450;-58
2022/09/06 05:09:31;;;;;;;6.90;6.20;;;17.90;79.40;;;;;;5105018;28;20842;-60
2022/09/06 05:11:58;;;;;;;8.53;7.47;;;17.90;79.20;;;;;;5089230;28;20880;-58
2022/09/06 05:14:26;;;;;;;8.20;6.27;;;17.90;79.10;;;;;;5089388;28;20496;-60
2022/09/06 05:16:53;;;;;;;7.97;7.30;;;17.90;78.90;;;;;;5090234;28;20533;-60
2022/09/06 05:19:21;;;;;;;7.00;6.40;;;17.90;78.70;;;;;;5104303;28;20472;-60
2022/09/06 05:21:50;;;;;;;8.93;7.07;;;17.90;78.40;;;;;;5093451;28;20453;-59
2022/09/06 05:24:17;;;;;;;8.67;6.90;;;17.90;78.10;;;;;;5095486;28;20557;-59
2022/09/06 05:26:44;;;;;;;8.10;7.00;;;17.90;77.80;;;;;;5096074;28;20521;-59
2022/09/06 05:29:12;;;;;;;7.70;7.10;;;18.00;77.70;;;;;;5094976;28;20478;-60
2022/09/06 05:31:39;;;;;;;7.40;6.80;;;18.00;77.30;;;;;;5095866;28;20533;-60
2022/09/06 05:34:06;;;;;;;9.47;7.40;;;18.00;77.80;;;;;;5090464;28;20486;-60
2022/09/06 05:36:37;;;;;;;8.20;7.23;;;18.00;77.00;;;;;;5075418;28;21011;-59
2022/09/06 05:39:04;;;;;;;7.47;6.80;;;18.00;76.80;;;;;;5091991;28;20441;-60
2022/09/06 05:41:32;;;;;;;8.43;7.20;;;18.10;76.60;;;;;;5094166;28;20533;-58
2022/09/06 05:43:59;;;;;;;8.10;7.10;;;18.10;76.30;;;;;;5082972;28;20450;-60
2022/09/06 05:46:27;;;;;;;7.33;6.67;;;18.10;76.10;;;;;;5091917;28;20880;-61
2022/09/06 05:48:55;;;;;;;8.63;7.70;;;18.10;75.90;;;;;;5082880;28;20493;-60
2022/09/06 05:51:22;;;;;;;7.10;6.40;;;18.10;75.70;;;;;;5083111;28;20537;-60
2022/09/06 05:53:50;;;;;;;7.33;6.60;;;18.20;75.60;;;;;;5095345;28;20864;-59
2022/09/06 05:56:18;;;;;;;7.73;7.03;;;18.20;75.40;;;;;;5095149;28;20613;-59
2022/09/06 05:58:45;;;;;;;8.93;6.60;;;18.20;75.30;;;;;;5077832;28;20443;-59
2022/09/06 06:01:16;;;;;;;6.60;6.10;;;18.20;75.30;;;;;;5076188;28;20546;-59
2022/09/06 06:03:50;;;;;;;7.10;6.40;;;18.20;75.30;;;;;;5080349;28;20571;-60
2022/09/06 06:06:18;;;;;;;7.80;6.53;;;18.20;75.40;;;;;;5095581;28;20552;-59
2022/09/06 06:08:45;;;;;;;6.67;6.07;;;18.20;75.50;;;;;;5092571;28;20834;-59
2022/09/06 06:11:14;;;;;;;7.57;6.80;;;18.10;75.60;;;;;;5094847;28;20529;-59
2022/09/06 06:13:42;;;;;;;8.80;8.00;;;18.10;75.80;;;;;;5094700;28;20545;-60
2022/09/06 06:16:10;;;;;;;9.37;7.50;;;18.10;76.20;;;;;;5095316;28;20466;-60
2022/09/06 06:18:38;;;;;;;7.67;7.07;;;18.10;77.10;;;;;;5094489;28;20549;-60
2022/09/06 06:21:13;;;;;;;8.07;7.37;;;18.00;78.10;;;;;;5095046;28;20449;-60
2022/09/06 06:23:42;;;;;;;8.73;7.73;;;17.90;79.30;;;;;;5094226;28;20548;-61
2022/09/06 06:26:11;;;;;;;10.00;8.37;;;17.80;81.00;;;;;;5094084;28;20470;-62
2022/09/06 06:28:40;;;;;;;10.73;9.57;;;17.70;82.60;;;;;;5090579;28;20530;-60
2022/09/06 06:31:09;;;;;;;12.73;9.80;;;17.50;85.10;;;;;;5073957;28;20451;-60
2022/09/06 06:33:36;;;;;;;13.20;11.53;;;17.30;87.60;;;;;;5073379;28;20789;-59
2022/09/06 06:36:06;;;;;;;10.60;9.67;;;17.10;90.60;;;;;;5073547;28;21072;-59
2022/09/06 06:38:36;;;;;;;13.13;10.23;;;16.90;91.80;;;;;;5094553;28;20849;-59
2022/09/06 06:41:04;;;;;;;11.43;10.03;;;16.60;93.10;;;;;;5094558;28;20449;-59
2022/09/06 06:43:35;;;;;;;12.27;11.07;;;16.40;94.40;;;;;;5095165;28;20530;-59
2022/09/06 06:46:04;;;;;;;12.27;11.00;;;16.20;95.80;;;;;;5094485;28;20462;-59
2022/09/06 06:48:31;;;;;;;12.23;10.70;;;16.00;97.20;;;;;;5094015;28;20518;-60
2022/09/06 06:50:59;;;;;;;12.80;11.50;;;15.80;98.40;;;;;;5093913;28;20518;-60
2022/09/06 06:53:26;;;;;;;16.27;12.80;;;15.70;99.70;;;;;;5094371;28;20474;-61
2022/09/06 06:55:54;;;;;;;13.53;12.33;;;15.70;99.90;;;;;;5093649;28;20636;-61
2022/09/06 06:58:21;;;;;;;17.07;12.60;;;15.80;99.90;;;;;;5074632;28;20455;-60
2022/09/06 07:00:49;;;;;;;13.53;12.33;;;15.80;99.90;;;;;;5075255;28;20440;-59
2022/09/06 07:03:18;;;;;;;13.90;12.17;;;15.90;99.90;;;;;;5074924;28;20877;-61
2022/09/06 07:05:45;;;;;;;13.03;11.70;;;16.00;99.90;;;;;;5074748;28;20467;-60
2022/09/06 07:08:13;;;;;;;13.10;11.80;;;16.10;99.90;;;;;;5073851;28;20446;-61
2022/09/06 07:10:40;;;;;;;16.03;12.40;;;16.20;99.90;;;;;;5073474;28;20201;-60
2022/09/06 07:13:08;;;;;;;13.00;11.67;;;16.20;99.90;;;;;;5074389;28;20861;-62
2022/09/06 07:15:35;;;;;;;12.73;11.43;;;16.30;99.90;;;;;;5082515;28;20463;-61
2022/09/06 07:18:02;;;;;;;11.13;10.13;;;16.30;99.90;;;;;;5073659;28;20543;-61
2022/09/06 07:20:31;;;;;;;11.93;10.73;;;16.40;99.90;;;;;;5073434;28;20534;-61
2022/09/06 07:23:03;;;;;;;13.33;11.93;;;16.40;99.90;;;;;;5073020;28;20538;-62
2022/09/06 07:25:30;;;;;;;12.23;10.90;;;16.50;99.90;;;;;;5073604;28;20462;-62
2022/09/06 07:28:00;;;;;;;13.03;10.80;;;16.50;99.90;;;;;;5073685;28;20497;-62
2022/09/06 07:30:27;;;;;;;12.63;11.27;;;16.50;99.90;;;;;;5073232;28;20478;-61
2022/09/06 07:32:55;;;;;;;13.10;10.30;;;16.50;99.90;;;;;;5073376;28;20524;-63
2022/09/06 07:35:23;;;;;;;12.80;10.10;;;16.50;99.90;;;;;;5073911;28;20563;-61
2022/09/06 07:37:56;;;;;;;14.03;10.17;;;16.50;99.90;;;;;;5073554;28;20501;-61
2022/09/06 07:40:24;;;;;;;11.30;10.10;;;16.50;99.90;;;;;;5073297;28;20515;-60
2022/09/06 07:42:51;;;;;;;11.60;10.43;;;16.40;99.90;;;;;;5072912;28;20455;-61
2022/09/06 07:45:19;;;;;;;18.40;11.73;;;16.30;99.90;;;;;;5072858;28;20564;-61
2022/09/06 07:47:54;;;;;;;19.23;11.90;;;16.20;99.90;;;;;;5072787;28;20531;-60
2022/09/06 07:50:21;;;;;;;20.57;12.00;;;16.00;99.90;;;;;;5072671;28;20467;-62
2022/09/06 07:52:49;;;;;;;12.90;11.63;;;15.90;99.90;;;;;;5072842;28;20479;-62
2022/09/06 07:55:17;;;;;;;11.93;10.67;;;15.80;99.90;;;;;;5072803;28;20562;-60
2022/09/06 07:57:45;;;;;;;15.70;12.43;;;15.80;99.90;;;;;;5072922;28;20557;-61
2022/09/06 08:00:13;;;;;;;12.87;11.67;;;15.70;99.90;;;;;;5075235;28;20465;-61
2022/09/06 08:02:40;;;;;;;11.77;10.03;;;15.60;99.90;;;;;;5076547;28;20451;-60
2022/09/06 08:05:09;;;;;;;12.80;11.40;;;15.60;99.90;;;;;;5074709;28;20462;-61
2022/09/06 08:07:36;;;;;;;14.17;9.90;;;15.60;99.90;;;;;;5073155;28;20455;-61
2022/09/06 08:10:04;;;;;;;10.67;9.33;;;15.70;99.90;;;;;;5072731;28;20581;-61
2022/09/06 08:12:33;;;;;;;11.97;9.73;;;15.80;99.90;;;;;;5073042;28;20538;-61
2022/09/06 08:15:00;;;;;;;12.30;9.27;;;15.90;99.90;;;;;;5072866;28;20511;-60
2022/09/06 08:17:27;;;;;;;10.63;9.73;;;16.00;99.90;;;;;;5072744;28;20927;-62
2022/09/06 08:19:55;;;;;;;11.10;8.73;;;16.10;99.90;;;;;;5072942;28;20471;-61
2022/09/06 08:22:22;;;;;;;13.20;10.80;;;16.20;99.90;;;;;;5073452;28;20505;-62
2022/09/06 08:24:50;;;;;;;9.27;8.47;;;16.30;99.90;;;;;;5073272;28;20478;-61
2022/09/06 08:27:17;;;;;;;9.80;8.90;;;16.40;99.90;;;;;;5072577;28;20454;-60
2022/09/06 08:29:46;;;;;;;9.00;8.20;;;16.50;99.90;;;;;;5073048;28;20838;-61
2022/09/06 08:32:13;;;;;;;10.30;9.17;;;16.50;99.90;;;;;;5073067;28;20539;-61
2022/09/06 08:34:41;;;;;;;11.07;8.77;;;16.60;99.90;;;;;;5073128;28;20518;-61
2022/09/06 08:37:08;;;;;;;10.43;9.07;;;16.70;99.90;;;;;;5073453;28;20508;-61
2022/09/06 08:39:35;;;;;;;10.23;9.00;;;16.90;99.90;;;;;;5073734;28;20439;-62
2022/09/06 08:42:05;;;;;;;8.70;7.80;;;17.10;99.90;;;;;;5074045;28;20542;-61
2022/09/06 08:44:36;;;;;;;10.33;8.40;;;17.30;99.90;;;;;;5075457;28;20523;-62
2022/09/06 08:47:07;;;;;;;8.33;7.17;;;17.40;99.90;;;;;;5074600;28;20446;-61
2022/09/06 08:49:38;;;;;;;10.23;8.20;;;17.60;99.90;;;;;;5073785;28;20470;-62
2022/09/06 08:52:25;;;;;;;10.80;8.50;;;17.80;99.50;;;;;;5077885;28;20503;-61
2022/09/06 08:55:00;;;;;;;12.80;7.57;;;18.10;98.70;;;;;;5085061;28;20778;-61
2022/09/06 08:57:52;;;;;;;8.33;7.53;;;18.40;97.70;;;;;;5089259;28;20455;-61
2022/09/06 09:00:21;;;;;;;8.00;7.20;;;18.60;96.40;;;;;;5087850;28;20943;-61
2022/09/06 09:03:03;;;;;;;7.40;6.70;;;18.70;95.70;;;;;;5081511;28;20447;-61
2022/09/06 09:05:33;;;;;;;7.80;6.70;;;18.80;94.80;;;;;;5080078;28;20501;-60
2022/09/06 09:08:08;;;;;;;6.80;6.20;;;18.90;94.40;;;;;;5079205;28;20481;-62
2022/09/06 09:10:42;;;;;;;9.20;6.07;;;19.00;93.40;;;;;;5076804;28;20474;-62
2022/09/06 09:13:19;;;;;;;10.13;6.27;;;19.10;92.40;;;;;;5076878;28;20438;-61
2022/09/06 09:15:46;;;;;;;6.53;5.73;;;19.20;91.70;;;;;;5076813;28;20886;-60
2022/09/06 09:18:21;;;;;;;9.90;5.73;;;19.30;90.40;;;;;;5076554;28;20533;-60
2022/09/06 09:20:48;;;;;;;10.17;5.57;;;19.40;88.70;;;;;;5076909;28;20881;-61
2022/09/06 09:23:16;;;;;;;6.73;5.80;;;19.40;87.50;;;;;;5075730;28;20534;-62
2022/09/06 09:25:45;;;;;;;7.37;5.93;;;19.50;86.60;;;;;;5075776;28;20507;-62
2022/09/06 09:28:17;;;;;;;6.40;5.70;;;19.70;85.00;;;;;;5075794;28;20543;-63
2022/09/06 09:30:48;;;;;;;6.73;5.77;;;19.90;83.40;;;;;;5076394;28;20463;-62
2022/09/06 09:33:29;;;;;;;7.90;5.80;;;20.20;81.60;;;;;;5076841;28;20460;-62
2022/09/06 09:35:58;;;;;;;11.60;5.33;;;20.50;79.00;;;;;;5075834;28;20533;-63
2022/09/06 09:38:27;;;;;;;6.20;5.50;;;20.70;76.70;;;;;;5075481;28;20488;-62
2022/09/06 09:40:57;;;;;;;5.80;5.30;;;21.00;74.90;;;;;;5075749;28;20846;-60
2022/09/06 09:43:26;;;;;;;6.60;5.47;;;21.20;72.90;;;;;;5075095;28;20444;-61
2022/09/06 09:46:16;;;;;;;5.90;5.30;;;21.50;71.20;;;;;;5075706;28;20473;-61
2022/09/06 09:49:00;;;;;;;7.03;6.10;;;21.60;69.30;;;;;;5076268;28;20426;-62
2022/09/06 09:51:29;;;;;;;6.10;5.37;;;21.80;68.50;;;;;;5075615;28;20466;-61
2022/09/06 09:53:58;;;;;;;9.00;5.23;;;22.00;66.90;;;;;;5075960;28;20829;-62
2022/09/06 09:56:34;;;;;;;7.63;5.33;;;22.00;66.60;;;;;;5077552;28;20558;-62
2022/09/06 09:59:02;;;;;;;7.83;5.90;;;22.20;65.80;;;;;;5076231;28;20438;-62
2022/09/06 10:01:31;;;;;;;5.70;5.20;;;22.50;65.20;;;;;;5075486;28;20450;-61
2022/09/06 10:04:09;;;;;;;6.10;5.50;;;22.70;64.40;;;;;;5075894;28;20791;-62
2022/09/06 10:06:37;;;;;;;10.47;6.00;;;22.80;63.30;;;;;;5075469;28;20477;-60
2022/09/06 10:09:15;;;;;;;6.37;5.23;;;22.90;62.70;;;;;;5075208;28;20467;-61
2022/09/06 10:11:54;;;;;;;6.57;5.53;;;22.70;62.10;;;;;;5075342;28;20482;-60
2022/09/06 10:14:28;;;;;;;12.43;5.80;;;22.50;61.90;;;;;;5075671;28;20936;-62
2022/09/06 10:16:56;;;;;;;6.40;5.77;;;22.30;62.30;;;;;;5075947;28;20473;-62
2022/09/06 10:19:38;;;;;;;8.50;6.00;;;22.10;62.60;;;;;;5076651;28;20496;-61
2022/09/06 10:22:20;;;;;;;7.17;5.37;;;21.90;62.50;;;;;;5075534;28;20430;-62
2022/09/06 10:25:18;;;;;;;7.87;4.90;;;21.70;62.80;;;;;;5075534;28;20906;-60
2022/09/06 10:28:06;;;;;;;6.37;5.03;;;21.50;62.70;;;;;;5075564;28;20475;-62
2022/09/06 10:30:41;;;;;;;8.90;5.20;;;21.40;62.90;;;;;;5066656;28;20534;-62
2022/09/06 10:33:22;;;;;;;9.03;5.33;;;21.30;62.60;;;;;;5075765;28;20433;-62
2022/09/06 10:35:51;;;;;;;6.50;5.17;;;21.30;62.30;;;;;;5075103;28;20465;-62
2022/09/06 10:38:37;;;;;;;6.20;5.10;;;21.20;61.70;;;;;;5076153;28;20452;-61
2022/09/06 10:41:28;;;;;;;7.13;4.93;;;21.20;61.80;;;;;;5075753;28;20483;-61
2022/09/06 10:44:06;;;;;;;6.30;4.80;;;21.20;61.60;;;;;;5077036;28;20442;-61
2022/09/06 10:46:36;;;;;;;6.23;5.27;;;21.30;61.50;;;;;;5077780;28;21018;-61
2022/09/06 10:49:03;;;;;;;6.00;5.40;;;21.50;61.30;;;;;;5075994;28;20442;-63
2022/09/06 10:51:38;;;;;;;6.70;5.03;;;21.60;60.60;;;;;;5077068;28;20482;-61
2022/09/06 10:54:09;;;;;;;5.60;5.00;;;21.70;60.30;;;;;;5077507;28;20430;-62
2022/09/06 10:56:43;;;;;;;6.73;5.60;;;21.70;60.00;;;;;;5077704;28;20556;-62
2022/09/06 10:59:19;;;;;;;7.47;4.70;;;21.70;59.80;;;;;;5076081;28;20433;-62
2022/09/06 11:02:02;;;;;;;8.77;5.37;;;21.80;59.50;;;;;;5075153;28;20936;-61
2022/09/06 11:04:33;;;;;;;4.90;4.37;;;21.90;59.10;;;;;;5074994;28;20437;-62
2022/09/06 11:07:05;;;;;;;5.20;4.43;;;22.10;58.80;;;;;;5074968;28;20547;-62
2022/09/06 11:09:35;;;;;;;7.50;4.70;;;22.30;58.30;;;;;;5075174;28;20466;-62
2022/09/06 11:12:09;;;;;;;8.10;4.90;;;22.40;57.90;;;;;;5074698;28;20569;-62
2022/09/06 11:14:38;;;;;;;10.03;5.10;;;22.40;57.30;;;;;;5075069;28;20509;-61
2022/09/06 11:17:08;;;;;;;6.13;4.23;;;22.40;57.10;;;;;;5074708;28;20454;-61
2022/09/06 11:19:43;;;;;;;5.20;4.70;;;22.50;56.80;;;;;;5074438;28;20526;-62
2022/09/06 11:22:43;;;;;;;5.83;4.30;;;22.70;56.60;;;;;;5074743;28;20438;-62
2022/09/06 11:25:41;;;;;;;4.60;4.20;;;22.70;56.00;;;;;;5075005;28;20830;-61
2022/09/06 11:28:13;;;;;;;6.63;4.50;;;22.90;55.90;;;;;;5074610;28;20841;-62
2022/09/06 11:30:46;;;;;;;7.47;4.50;;;23.00;55.50;;;;;;5074149;28;20559;-61
2022/09/06 11:33:27;;;;;;;5.13;4.50;;;23.00;55.10;;;;;;5073404;28;20515;-62
2022/09/06 11:36:16;;;;;;;12.10;4.83;;;22.90;55.10;;;;;;5073309;28;20484;-61
2022/09/06 11:38:55;;;;;;;5.33;4.83;;;22.80;55.20;;;;;;5073150;28;20454;-60
2022/09/06 11:41:27;;;;;;;5.13;4.73;;;22.70;55.00;;;;;;5073092;28;20424;-62
2022/09/06 11:43:54;;;;;;;6.27;4.63;;;22.60;55.10;;;;;;5073314;28;20437;-62
2022/09/06 11:47:00;;;;;;;6.27;5.13;;;22.60;55.40;;;;;;5073113;28;20497;-61
2022/09/06 11:49:33;;;;;;;6.70;5.03;;;22.70;55.60;;;;;;5073560;28;20446;-61
2022/09/06 11:52:02;;;;;;;13.10;4.50;;;22.80;55.30;;;;;;5073392;28;20869;-62
2022/09/06 11:54:42;;;;;;;5.87;4.00;;;22.80;55.10;;;;;;5072972;28;20552;-61
2022/09/06 11:57:14;;;;;;;13.73;4.83;;;22.90;55.00;;;;;;5073576;28;20430;-60
2022/09/06 11:59:52;;;;;;;6.50;4.90;;;22.90;54.90;;;;;;5073148;28;20445;-61
2022/09/06 12:02:35;;;;;;;7.53;4.20;;;22.90;54.90;;;;;;5073431;28;20452;-61
2022/09/06 12:05:14;;;;;;;15.33;4.53;;;23.00;54.80;;;;;;5073253;28;20569;-61
2022/09/06 12:08:14;;;;;;;5.23;4.73;;;23.20;54.80;;;;;;5072960;28;20435;-62
2022/09/06 12:10:49;;;;;;;7.77;5.50;;;23.30;54.70;;;;;;5073322;28;20477;-62
2022/09/06 12:13:54;;;;;;;7.33;4.83;;;23.50;54.50;;;;;;5072677;28;20438;-61
2022/09/06 12:16:22;;;;;;;7.50;4.80;;;23.80;54.30;;;;;;5030984;28;20867;-62
2022/09/06 12:18:58;;;;;;;5.80;5.17;;;23.90;53.90;;;;;;5030508;28;20535;-62
2022/09/06 12:21:41;;;;;;;5.83;3.93;;;23.90;53.30;;;;;;5053452;28;20449;-61
2022/09/06 12:24:29;;;;;;;10.20;5.23;;;23.90;53.20;;;;;;5072475;28;20485;-61
2022/09/06 12:27:14;;;;;;;7.63;5.20;;;23.90;53.20;;;;;;5072161;28;20841;-61
2022/09/06 12:29:50;;;;;;;4.93;4.43;;;24.00;53.10;;;;;;5072957;28;20461;-61
2022/09/06 12:32:21;;;;;;;6.27;4.60;;;24.10;53.00;;;;;;5076346;28;20455;-61
2022/09/06 12:34:49;;;;;;;5.20;4.80;;;24.20;52.70;;;;;;5076265;28;21031;-61
2022/09/06 12:37:32;;;;;;;5.30;4.80;;;24.20;52.60;;;;;;5076678;28;20458;-61
2022/09/06 12:40:00;;;;;;;5.93;5.00;;;24.30;52.40;;;;;;5076405;28;20512;-61
2022/09/06 12:42:30;;;;;;;6.47;5.13;;;24.30;52.20;;;;;;5076549;28;20483;-61
2022/09/06 12:44:57;;;;;;;7.53;4.83;;;24.40;52.20;;;;;;5076908;28;20461;-61
2022/09/06 12:47:30;;;;;;;4.80;4.40;;;24.40;52.00;;;;;;5076343;28;20944;-62
2022/09/06 12:50:10;;;;;;;7.87;4.17;;;24.40;51.80;;;;;;5076229;28;20432;-62
2022/09/06 12:52:45;;;;;;;9.17;4.83;;;24.40;52.00;;;;;;5076830;28;20479;-61
2022/09/06 12:55:19;;;;;;;6.27;4.53;;;24.50;51.80;;;;;;5076656;28;20467;-64
2022/09/06 12:57:54;;;;;;;6.53;4.90;;;24.60;51.70;;;;;;5075984;28;20423;-62
2022/09/06 13:00:22;;;;;;;9.23;5.10;;;24.60;51.50;;;;;;5076667;28;20447;-62
2022/09/06 13:02:58;;;;;;;6.10;5.10;;;24.70;51.50;;;;;;5076122;28;20537;-61
2022/09/06 13:05:26;;;;;;;9.80;5.13;;;24.80;51.50;;;;;;5077553;28;21017;-62
2022/09/06 13:07:57;;;;;;;8.77;4.77;;;24.90;51.50;;;;;;5077028;28;20499;-61